createdAt,value
2023-09-30T00:01:52.309Z,1023.9232261989657
2023-09-30T00:05:11.708Z,1023.8794551567636
2023-09-30T00:08:31.469Z,1023.9342040701385
2023-09-30T00:12:00.670Z,1023.9603537992616
2023-09-30T00:15:20.171Z,1024.0031905112512
2023-09-30T00:18:39.365Z,1024.048936574754
2023-09-30T00:21:59.729Z,1024.085019127691
2023-09-30T00:25:19.180Z,1024.0419258868676
2023-09-30T00:31:47.512Z,1024.0758647460216
2023-09-30T00:35:06.962Z,1024.0563995121745
2023-09-30T00:38:26.852Z,1024.090169610535
2023-09-30T00:41:46.628Z,1024.079359644813
2023-09-30T00:45:06.371Z,1024.0254050314522
2023-09-30T00:48:27.192Z,1023.9973102641195
2023-09-30T00:55:31.039Z,1024.0252020080852
2023-09-30T00:58:50.922Z,1024.0670452339727
2023-09-30T01:05:24.550Z,1024.169899768189
2023-09-30T01:08:44.444Z,1024.2338711649224
2023-09-30T01:12:04.012Z,1024.2001362040637
2023-09-30T01:15:23.385Z,1024.1264787349023
2023-09-30T01:18:43.179Z,1024.1868033063843
2023-09-30T01:22:03.359Z,1024.2917308586339
2023-09-30T01:25:23.342Z,1024.3637940878812
2023-09-30T01:28:43.442Z,1024.3367892285196
2023-09-30T01:32:02.901Z,1024.2785191962166
2023-09-30T01:35:22.180Z,1024.2892082449578
2023-09-30T01:38:41.862Z,1024.295993741299
2023-09-30T01:42:01.042Z,1024.2612648890627
2023-09-30T01:45:20.930Z,1024.2528240908086
2023-09-30T01:48:40.731Z,1024.2515590852515
2023-09-30T01:52:00.161Z,1024.2113385432701
2023-09-30T01:55:19.951Z,1024.2105300372657
2023-09-30T01:58:39.740Z,1024.2869008245773
2023-09-30T02:03:38.418Z,1024.3440298048413
2023-09-30T02:06:58.207Z,1024.3436601386043
2023-09-30T02:10:18.099Z,1024.3490182490948
2023-09-30T02:13:38.190Z,1024.4211893468173
2023-09-30T02:16:57.966Z,1024.3730688465134
2023-09-30T02:20:17.834Z,1024.3885329641555
2023-09-30T02:23:36.810Z,1024.4628622614555
2023-09-30T02:26:55.567Z,1024.5230144335285
2023-09-30T02:30:15.757Z,1024.5438526381013
2023-09-30T02:36:41.052Z,1024.5358309579572
2023-09-30T02:41:04.779Z,1024.6082736661228
2023-09-30T02:44:24.968Z,1024.5555764297408
2023-09-30T02:47:44.572Z,1024.5419140989814
2023-09-30T02:51:04.520Z,1024.5538653200013
2023-09-30T02:54:24.362Z,1024.526801647358
2023-09-30T02:57:43.304Z,1024.4684411945732
2023-09-30T03:01:03.233Z,1024.4696015338493
2023-09-30T03:04:23.270Z,1024.5208788217055
2023-09-30T03:07:43.243Z,1024.468425905689
2023-09-30T03:11:02.699Z,1024.5011136754815
2023-09-30T03:14:23.006Z,1024.5086986575222
2023-09-30T03:17:42.102Z,1024.5148598848784
2023-09-30T03:21:02.153Z,1024.5019739274949
2023-09-30T03:24:22.467Z,1024.535501086353
2023-09-30T03:28:41.726Z,1024.5409636577983
2023-09-30T03:32:01.402Z,1024.5727201769705
2023-09-30T03:36:39.749Z,1024.5485133446273
2023-09-30T03:39:59.517Z,1024.5623710853847
2023-09-30T03:43:19.274Z,1024.6070455058527
2023-09-30T03:46:38.522Z,1024.5620571520567
2023-09-30T03:49:58.133Z,1024.5836023255742
2023-09-30T03:53:18.015Z,1024.5613623104166
2023-09-30T03:56:37.697Z,1024.5206368428844
2023-09-30T04:00:40.216Z,1024.5299010975725
2023-09-30T04:03:59.887Z,1024.5725003881173
2023-09-30T04:07:19.483Z,1024.544647896122
2023-09-30T04:10:39.319Z,1024.5348388733116
2023-09-30T04:13:58.561Z,1024.5657552528946
2023-09-30T04:17:18.788Z,1024.5503063429
2023-09-30T04:20:38.380Z,1024.5459218243998
2023-09-30T04:23:58.288Z,1024.5078661256227
2023-09-30T04:27:18.289Z,1024.5392907171736
2023-09-30T04:30:38.104Z,1024.6219874038918
2023-09-30T04:33:57.583Z,1024.6305204374169
2023-09-30T04:37:16.973Z,1024.572241319307
2023-09-30T04:40:36.640Z,1024.5529878710145
2023-09-30T04:43:56.721Z,1024.6264734962265
2023-09-30T04:47:16.913Z,1024.6917510739293
2023-09-30T04:52:34.272Z,1024.8189874641268
2023-09-30T04:55:54.235Z,1024.8279527161317
2023-09-30T04:59:13.104Z,1024.81004731295
2023-09-30T05:02:32.808Z,1024.7192754814396
2023-09-30T05:05:52.577Z,1024.6664940573007
2023-09-30T05:09:11.960Z,1024.6646204253668
2023-09-30T05:12:31.747Z,1024.7202108861184
2023-09-30T05:15:51.580Z,1024.7596938085396
2023-09-30T05:19:11.811Z,1024.8098354900053
2023-09-30T05:22:31.371Z,1024.8134834777131
2023-09-30T05:31:53.046Z,1024.9605881192476
2023-09-30T05:35:13.133Z,1025.0052471749307
2023-09-30T05:38:32.706Z,1025.0184646111616
2023-09-30T05:41:51.874Z,1025.0095898043185
2023-09-30T05:45:12.187Z,1025.0634152469547
2023-09-30T05:48:54.195Z,1025.0986238242308
2023-09-30T05:52:14.684Z,1025.1871581400046
2023-09-30T05:55:34.534Z,1025.22442413476
2023-09-30T05:58:53.922Z,1025.2043300185894
2023-09-30T06:06:51.863Z,1025.2921717986496
2023-09-30T06:10:11.967Z,1025.303795138814
2023-09-30T06:13:31.900Z,1025.371381444052
2023-09-30T06:16:51.397Z,1025.3660780797204
2023-09-30T06:20:11.755Z,1025.387525933988
2023-09-30T06:23:31.435Z,1025.3727704685116
2023-09-30T06:26:50.512Z,1025.4248296593687
2023-09-30T06:30:10.431Z,1025.429983353448
2023-09-30T06:33:30.513Z,1025.4345713301645
2023-09-30T06:39:24.866Z,1025.52707056638
2023-09-30T06:42:44.910Z,1025.606033796096
2023-09-30T06:46:03.803Z,1025.5772325768112
2023-09-30T06:49:23.823Z,1025.5978462671565
2023-09-30T06:52:43.785Z,1025.6742248184185
2023-09-30T06:56:03.864Z,1025.693094777713
2023-09-30T06:59:24.096Z,1025.7338120712898
2023-09-30T07:02:44.132Z,1025.8110031203987
2023-09-30T07:06:03.763Z,1025.9083442156762
2023-09-30T07:09:23.881Z,1025.9116048557664
2023-09-30T07:12:43.710Z,1025.934771968715
2023-09-30T07:16:02.500Z,1025.9647957173895
2023-09-30T07:19:22.283Z,1025.9976315523459
2023-09-30T07:22:52.196Z,1026.0447257210972
2023-09-30T07:26:18.664Z,1026.0617896535198
2023-09-30T07:29:38.318Z,1026.1002650803787
2023-09-30T07:32:58.253Z,1026.0876606765826
2023-09-30T07:36:17.856Z,1026.0597270904698
2023-09-30T07:42:19.486Z,1026.1506459346833
2023-09-30T07:45:38.628Z,1026.21674480959
2023-09-30T07:48:58.506Z,1026.2508309772381
2023-09-30T07:52:18.412Z,1026.2577161442623
2023-09-30T07:55:37.359Z,1026.2652766742838
2023-09-30T07:58:56.919Z,1026.255551194903
2023-09-30T08:02:56.488Z,1026.2714171022474
2023-09-30T08:06:15.803Z,1026.3368459396768
2023-09-30T08:09:35.519Z,1026.3242119495203
2023-09-30T08:13:53.274Z,1026.299533822085
2023-09-30T08:17:13.712Z,1026.282223979444
2023-09-30T08:20:33.116Z,1026.3230054039088
2023-09-30T08:23:52.978Z,1026.3875988573632
2023-09-30T08:27:13.192Z,1026.4022884510707
2023-09-30T08:30:32.559Z,1026.4302322190454
2023-09-30T08:33:51.749Z,1026.4981118419191
2023-09-30T08:37:11.907Z,1026.5233349902544
2023-09-30T08:40:31.693Z,1026.5475710518376
2023-09-30T08:43:50.774Z,1026.5339279700459
2023-09-30T08:47:10.595Z,1026.5584757286135
2023-09-30T08:50:29.806Z,1026.5661265543868
2023-09-30T08:53:49.699Z,1026.5882139282112
2023-09-30T08:57:10.170Z,1026.5882084249927
2023-09-30T09:00:30.309Z,1026.593052348095
2023-09-30T09:03:49.505Z,1026.6254144091731
2023-09-30T09:07:08.984Z,1026.6520210138926
2023-09-30T09:10:27.993Z,1026.686836862421
2023-09-30T09:13:47.571Z,1026.6552341024385
2023-09-30T09:17:07.644Z,1026.6341997302673
2023-09-30T09:20:27.652Z,1026.637686788946
2023-09-30T09:25:50.204Z,1026.665322657254
2023-09-30T09:29:09.132Z,1026.65452386139
2023-09-30T09:33:06.636Z,1026.697647053503
2023-09-30T09:36:26.609Z,1026.6487289841039
2023-09-30T09:39:46.250Z,1026.6568273742657
2023-09-30T09:43:05.756Z,1026.70147953015
2023-09-30T09:48:37.380Z,1026.6691672338932
2023-09-30T09:52:59.516Z,1026.7006102748196
2023-09-30T09:57:52.050Z,1026.6418101972604
2023-09-30T10:01:12.226Z,1026.637593964689
2023-09-30T10:04:31.896Z,1026.6594362156209
2023-09-30T10:07:50.651Z,1026.6646275216694
2023-09-30T10:15:37.695Z,1026.6756788570617
2023-09-30T10:18:57.139Z,1026.724802612581
2023-09-30T10:22:17.596Z,1026.8018776710906
2023-09-30T10:25:37.278Z,1026.908164288267
2023-09-30T10:28:57.096Z,1026.85084677864
2023-09-30T10:32:17.038Z,1026.7516069970413
2023-09-30T10:35:37.015Z,1026.8026632829203
2023-09-30T10:38:56.191Z,1026.8375493811668
2023-09-30T10:46:52.062Z,1026.9528380747759
2023-09-30T10:52:34.462Z,1027.0402961428651
2023-09-30T10:55:54.535Z,1027.0156455482959
2023-09-30T11:00:13.612Z,1027.000490768124
2023-09-30T11:03:33.472Z,1026.9702918630767
2023-09-30T11:06:53.196Z,1026.8933869599225
2023-09-30T11:10:13.001Z,1026.890983935417
2023-09-30T11:13:32.231Z,1026.8286679955113
2023-09-30T11:16:51.749Z,1026.8169023347098
2023-09-30T11:20:11.847Z,1026.8485536415217
2023-09-30T11:23:31.191Z,1026.8668446165873
2023-09-30T11:26:50.757Z,1026.8997066555985
2023-09-30T11:30:10.516Z,1026.930348677043
2023-09-30T11:33:31.163Z,1026.9506797789118
2023-09-30T11:36:50.471Z,1026.9366434872882
2023-09-30T11:40:10.696Z,1026.964982460245
2023-09-30T11:43:30.363Z,1026.9229865474983
2023-09-30T11:46:49.689Z,1026.9407019167627
2023-09-30T11:50:09.119Z,1026.9474981157375
2023-09-30T11:53:29.419Z,1026.9124472727715
2023-09-30T11:56:49.088Z,1026.8457919211305
2023-09-30T12:00:09.142Z,1026.7419249608336
2023-09-30T12:03:28.782Z,1026.7141731409447
2023-09-30T12:06:48.462Z,1026.7382309839713
2023-09-30T12:10:07.856Z,1026.6898927419145
2023-09-30T12:13:28.207Z,1026.641532841109
2023-09-30T12:16:48.338Z,1026.6510337742038
2023-09-30T12:20:08.064Z,1026.6458116423205
2023-09-30T12:23:28.065Z,1026.6519551253225
2023-09-30T12:26:47.117Z,1026.6038658109421
2023-09-30T12:30:06.702Z,1026.6139261813926
2023-09-30T12:33:38.996Z,1026.6004056799318
2023-09-30T12:36:58.935Z,1026.5747287811544
2023-09-30T12:42:34.873Z,1026.4928895889161
2023-09-30T12:45:54.566Z,1026.3543580616245
2023-09-30T12:49:14.718Z,1026.2925625933788
2023-09-30T12:52:34.478Z,1026.2899686379276
2023-09-30T12:55:56.107Z,1026.3503855665542
2023-09-30T13:01:50.859Z,1026.4030504598957
2023-09-30T13:05:10.980Z,1026.4282486320299
2023-09-30T13:08:31.608Z,1026.409594498467
2023-09-30T13:11:50.783Z,1026.4006241811344
2023-09-30T13:15:10.645Z,1026.444706003439
2023-09-30T13:18:30.462Z,1026.3925141582843
2023-09-30T13:21:49.998Z,1026.337477276931
2023-09-30T13:25:09.765Z,1026.3095395267273
2023-09-30T13:28:29.925Z,1026.2594077123551
2023-09-30T13:31:49.201Z,1026.2989629320352
2023-09-30T13:35:09.373Z,1026.3475958819588
2023-09-30T13:38:28.733Z,1026.3586859714542
2023-09-30T13:41:47.906Z,1026.371584720294
2023-09-30T13:45:07.682Z,1026.3090554052296
2023-09-30T13:49:52.158Z,1026.255132294725
2023-09-30T13:53:12.162Z,1026.2464236945088
2023-09-30T13:56:31.406Z,1026.176907612393
2023-09-30T13:59:50.977Z,1026.093013283765
2023-09-30T14:05:43.290Z,1026.0883398763035
2023-09-30T14:09:02.506Z,1026.1399584378628
2023-09-30T14:12:22.606Z,1026.218053273286
2023-09-30T14:15:41.623Z,1026.0957778809666
2023-09-30T14:19:54.889Z,1025.9134876154774
2023-09-30T14:23:15.190Z,1025.942848902808
2023-09-30T14:26:34.554Z,1025.8995560389108
2023-09-30T14:29:54.497Z,1025.8208314421522
2023-09-30T14:33:14.162Z,1025.738984713579
2023-09-30T14:36:33.636Z,1025.661946790166
2023-09-30T14:39:53.311Z,1025.6611555974805
2023-09-30T14:43:26.165Z,1025.6435091996411
2023-09-30T14:46:45.754Z,1025.5831945796126
2023-09-30T14:50:06.737Z,1025.5860247711146
2023-09-30T14:53:26.529Z,1025.5093112235672
2023-09-30T14:56:46.115Z,1025.49351383686
2023-09-30T15:00:05.479Z,1025.603779786785
2023-09-30T15:03:25.001Z,1025.6348912563503
2023-09-30T15:06:43.986Z,1025.5907021498433
2023-09-30T15:10:03.827Z,1025.5599495972322
2023-09-30T15:13:22.984Z,1025.6154641350809
2023-09-30T15:16:43.133Z,1025.6417867869877
2023-09-30T15:20:02.572Z,1025.7258964448645
2023-09-30T15:23:22.623Z,1025.7247620718565
2023-09-30T15:26:43.235Z,1025.7361524949933
2023-09-30T15:30:02.908Z,1025.7682921713117
2023-09-30T15:33:23.030Z,1025.7092693667714
2023-09-30T15:36:42.622Z,1025.6364940510143
2023-09-30T15:40:01.740Z,1025.610292808252
2023-09-30T15:43:21.638Z,1025.5746043394945
2023-09-30T15:46:41.670Z,1025.511070238817
2023-09-30T15:50:01.453Z,1025.435944909894
2023-09-30T15:53:20.354Z,1025.468960519936
2023-09-30T15:56:53.945Z,1025.5020239074793
2023-09-30T16:00:16.405Z,1025.5467266187056
2023-09-30T16:03:36.125Z,1025.5158232560982
2023-09-30T16:06:55.399Z,1025.5470952203827
2023-09-30T16:10:16.519Z,1025.5341278395138
2023-09-30T16:13:35.348Z,1025.5389230894375
2023-09-30T16:20:11.392Z,1025.4975967072708
2023-09-30T16:24:45.681Z,1025.5321476743193
2023-09-30T16:28:05.689Z,1025.5125100908633
2023-09-30T16:31:25.971Z,1025.5598123124084
2023-09-30T16:34:45.389Z,1025.571147610245
2023-09-30T16:38:05.289Z,1025.5387382176368
2023-09-30T16:41:24.449Z,1025.555016731555
2023-09-30T16:44:44.026Z,1025.5838517879229
2023-09-30T16:48:03.026Z,1025.5860833244049
2023-09-30T16:51:22.759Z,1025.5683119098937
2023-09-30T16:54:42.635Z,1025.6071737843893
2023-09-30T16:58:02.827Z,1025.5921658733166
2023-09-30T17:01:23.092Z,1025.5753807928822
2023-09-30T17:04:42.992Z,1025.5898984569808
2023-09-30T17:09:57.633Z,1025.54537950315
2023-09-30T17:13:17.552Z,1025.5984877750564
2023-09-30T17:19:39.050Z,1025.7137688062317
2023-09-30T17:24:06.808Z,1025.6825033030757
2023-09-30T17:27:25.769Z,1025.7049218559014
2023-09-30T17:30:45.454Z,1025.753234438382
2023-09-30T17:34:05.276Z,1025.7755324053066
2023-09-30T17:37:24.397Z,1025.7648552529774
2023-09-30T17:43:59.191Z,1025.7047645050186
2023-09-30T17:47:19.232Z,1025.7346585141463
2023-09-30T17:50:38.720Z,1025.7313336070897
2023-09-30T17:53:58.956Z,1025.6754896597226
2023-09-30T17:58:32.216Z,1025.6445717428446
2023-09-30T18:01:52.028Z,1025.6394883445619
2023-09-30T18:09:58.863Z,1025.6940812981525
2023-09-30T18:13:19.056Z,1025.7244440419597
2023-09-30T18:16:38.869Z,1025.7505197649493
2023-09-30T18:22:46.787Z,1025.7071026344663
2023-09-30T18:26:05.760Z,1025.7342258326912
2023-09-30T18:29:25.630Z,1025.7760332712203
2023-09-30T18:32:45.082Z,1025.7742816893408
2023-09-30T18:36:04.481Z,1025.7289284454182
2023-09-30T18:39:45.483Z,1025.686173036543
2023-09-30T18:43:04.476Z,1025.7165587365064
2023-09-30T18:46:24.262Z,1025.7503931775427
2023-09-30T18:49:43.999Z,1025.7967496481274
2023-09-30T18:53:03.211Z,1025.8274225913865
2023-09-30T18:56:23.366Z,1025.7930249271897
2023-09-30T19:04:47.207Z,1025.8473775145546
2023-09-30T19:08:06.735Z,1025.8224025485317
2023-09-30T19:11:26.815Z,1025.7888710236962
2023-09-30T19:14:46.090Z,1025.769385598143
2023-09-30T19:18:05.588Z,1025.7710332406996
2023-09-30T19:21:24.545Z,1025.7494691556337
2023-09-30T19:24:44.251Z,1025.7090048174502
2023-09-30T19:28:04.122Z,1025.699495945779
2023-09-30T19:31:24.286Z,1025.6844344787344
2023-09-30T19:34:43.875Z,1025.6855007414015
2023-09-30T19:38:03.048Z,1025.6608031172711
2023-09-30T19:41:22.815Z,1025.6783999705783
2023-09-30T19:44:42.496Z,1025.7011815272667
2023-09-30T19:48:01.700Z,1025.713243330393
2023-09-30T19:51:21.537Z,1025.6884030472536
2023-09-30T19:54:41.266Z,1025.6645096750945
2023-09-30T19:59:49.339Z,1025.685224613342
2023-09-30T20:03:09.190Z,1025.6589676197295
2023-09-30T20:07:55.339Z,1025.626425998242
2023-09-30T20:11:15.209Z,1025.6829872426345
2023-09-30T20:14:35.205Z,1025.6991634068831
2023-09-30T20:17:54.811Z,1025.6972539678648
2023-09-30T20:21:14.874Z,1025.64061906304
2023-09-30T20:24:34.137Z,1025.624922713174
2023-09-30T20:27:53.864Z,1025.6256663291972
2023-09-30T20:31:13.655Z,1025.5851453767186
2023-09-30T20:34:32.647Z,1025.5908995975578
2023-09-30T20:37:51.624Z,1025.6069122744414
2023-09-30T20:41:11.652Z,1025.6051920770853
2023-09-30T20:44:31.074Z,1025.5679676891748
2023-09-30T20:47:50.500Z,1025.5542245989316
2023-09-30T20:51:09.814Z,1025.5541563207562
2023-09-30T20:54:29.933Z,1025.5509723064044
2023-09-30T20:57:49.746Z,1025.5418925514814
2023-09-30T21:01:08.831Z,1025.499606497541
2023-09-30T21:04:28.504Z,1025.5028568616772
2023-09-30T21:07:48.225Z,1025.5320274089643
2023-09-30T21:11:07.946Z,1025.5535524667253
2023-09-30T21:14:27.281Z,1025.4961844219183
2023-09-30T21:17:46.902Z,1025.4605073838218
2023-09-30T21:21:06.234Z,1025.4694147800847
2023-09-30T21:26:28.702Z,1025.456741422943
2023-09-30T21:29:48.582Z,1025.418149999626
2023-09-30T21:33:08.250Z,1025.3469936655083
2023-09-30T21:36:27.349Z,1025.269547567427
2023-09-30T21:39:46.671Z,1025.250067289376
2023-09-30T21:43:05.897Z,1025.2653734278942
2023-09-30T21:46:25.742Z,1025.3012321242572
2023-09-30T21:49:45.543Z,1025.313834167951
2023-09-30T21:53:04.502Z,1025.288872647092
2023-09-30T21:57:27.869Z,1025.25811572036
2023-09-30T22:06:14.207Z,1025.2975215666552
2023-09-30T22:09:33.709Z,1025.3728734281428
2023-09-30T22:12:52.547Z,1025.4608670505472
2023-09-30T22:16:12.641Z,1025.4358646228884
2023-09-30T22:19:32.496Z,1025.3224592513284
2023-09-30T22:22:51.911Z,1025.2690651155276
2023-09-30T22:26:11.258Z,1025.2408714376459
2023-09-30T22:29:42.911Z,1025.2116977242258
2023-09-30T22:33:02.070Z,1025.1891859489315
2023-09-30T22:36:27.429Z,1025.2113535960448
2023-09-30T22:39:55.181Z,1025.2270897417231
2023-09-30T22:45:59.343Z,1025.2491827028805
2023-09-30T22:49:19.236Z,1025.2660271599143
2023-09-30T22:52:38.727Z,1025.1417237381243
2023-09-30T22:55:58.221Z,1025.1039721041866
2023-09-30T22:59:18.405Z,1025.1353379460625
2023-09-30T23:02:37.820Z,1025.1852935432712
2023-09-30T23:08:41.217Z,1025.140190324501
2023-09-30T23:12:00.777Z,1025.0935367499862
2023-09-30T23:15:20.405Z,1025.0870207121893
2023-09-30T23:18:40.628Z,1025.035498463497
2023-09-30T23:22:00.460Z,1025.0190079129804
2023-09-30T23:28:27.343Z,1024.9752052471292
2023-09-30T23:31:47.855Z,1025.008917216869
2023-09-30T23:35:07.063Z,1025.072706402987
2023-09-30T23:38:27.369Z,1025.0224466457564
2023-09-30T23:41:47.027Z,1024.9269344470392
2023-09-30T23:45:06.838Z,1024.9351869090776
2023-09-30T23:48:26.252Z,1024.9625741036025
2023-09-30T23:51:45.789Z,1024.9310013191007
2023-09-30T23:55:05.709Z,1024.8252152976127
2023-09-30T23:58:25.759Z,1024.7601244228308
